Time;durP1;ratioP1;P1;durP2;ratioP2;P2;SDS_P1;SDS_P2;PMS_P1;PMS_P2;Temp;Humidity;BMP_temperature;BMP_pressure;BME280_temperature;BME280_humidity;BME280_pressure;Samples;Min_cycle;Max_cycle;Signal;HPM_P1;HPM_P2
2022/12/26 00:01:22;;;;;;;104.75;28.55;;;;;;;;;;5107597;28;20066;-73
2022/12/26 00:03:49;;;;;;;82.47;26.48;;;;;;;;;;5105804;27;20043;-73
2022/12/26 00:06:16;;;;;;;92.13;25.80;;;;;;;;;;5110494;27;20497;-72
2022/12/26 00:08:42;;;;;;;118.35;28.48;;;;;;;;;;5095454;28;20054;-72
2022/12/26 00:11:08;;;;;;;120.00;28.23;;;;;;;;;;5101870;28;20458;-72
2022/12/26 00:13:35;;;;;;;160.95;30.25;;;;;;;;;;5095088;28;20040;-73
2022/12/26 00:16:05;;;;;;;74.30;26.45;;;;;;;;;;5110087;27;20035;-73
2022/12/26 00:18:31;;;;;;;86.17;24.30;;;;;;;;;;5099209;28;20040;-73
2022/12/26 00:20:57;;;;;;;78.30;24.55;;;;;;;;;;5108940;28;20052;-73
2022/12/26 00:23:23;;;;;;;87.68;25.27;;;;;;;;;;5112885;28;20051;-73
2022/12/26 00:25:49;;;;;;;95.90;25.40;;;;;;;;;;5122056;27;20037;-73
2022/12/26 00:28:15;;;;;;;89.20;24.35;;;;;;;;;;5096012;28;20043;-73
2022/12/26 00:30:41;;;;;;;136.32;27.45;;;;;;;;;;5107554;28;20421;-73
2022/12/26 00:33:07;;;;;;;100.25;26.25;;;;;;;;;;5105546;28;20059;-73
2022/12/26 00:35:33;;;;;;;117.82;27.17;;;;;;;;;;5106101;28;20056;-73
2022/12/26 00:37:59;;;;;;;118.35;27.50;;;;;;;;;;5110056;28;20040;-73
2022/12/26 00:40:25;;;;;;;89.38;26.10;;;;;;;;;;5113226;28;20086;-73
2022/12/26 00:42:52;;;;;;;112.88;26.95;;;;;;;;;;5106563;28;20093;-73
2022/12/26 00:45:18;;;;;;;75.72;24.42;;;;;;;;;;5099952;28;20044;-73
2022/12/26 00:47:44;;;;;;;67.68;23.23;;;;;;;;;;5101292;28;20059;-73
2022/12/26 00:50:10;;;;;;;95.72;25.23;;;;;;;;;;5101972;28;20096;-73
2022/12/26 00:52:36;;;;;;;90.63;24.08;;;;;;;;;;5113194;28;20078;-73
2022/12/26 00:55:02;;;;;;;73.72;22.73;;;;;;;;;;5102139;28;20052;-73
2022/12/26 00:57:28;;;;;;;80.28;22.90;;;;;;;;;;5103872;27;20047;-73
2022/12/26 00:59:54;;;;;;;47.50;20.48;;;;;;;;;;5108692;28;20052;-73
2022/12/26 01:02:38;;;;;;;57.28;20.83;;;;;;;;;;5107048;28;20123;-73
2022/12/26 01:05:05;;;;;;;48.47;20.45;;;;;;;;;;5111586;27;20048;-73
2022/12/26 01:07:35;;;;;;;60.20;21.27;;;;;;;;;;5098843;28;20044;-73
2022/12/26 01:10:02;;;;;;;51.93;20.70;;;;;;;;;;5102214;28;20062;-73
2022/12/26 01:12:29;;;;;;;66.28;21.88;;;;;;;;;;5104111;28;20063;-73
2022/12/26 01:14:56;;;;;;;64.18;21.98;;;;;;;;;;5104136;28;20089;-73
2022/12/26 01:17:22;;;;;;;53.55;21.13;;;;;;;;;;5104922;28;20035;-73
2022/12/26 01:19:48;;;;;;;52.55;20.45;;;;;;;;;;5105353;28;20046;-73
2022/12/26 01:22:14;;;;;;;63.88;21.20;;;;;;;;;;5108190;27;20131;-73
2022/12/26 01:24:40;;;;;;;56.15;20.55;;;;;;;;;;5104659;28;20039;-73
2022/12/26 01:27:06;;;;;;;58.88;21.15;;;;;;;;;;5106502;28;20105;-73
2022/12/26 01:29:32;;;;;;;47.88;19.58;;;;;;;;;;5102616;28;20038;-73
2022/12/26 01:31:58;;;;;;;76.95;22.73;;;;;;;;;;5104757;28;20040;-73
2022/12/26 01:34:24;;;;;;;56.88;20.52;;;;;;;;;;5106666;28;20032;-73
2022/12/26 01:36:53;;;;;;;59.17;20.67;;;;;;;;;;5104059;28;20138;-73
2022/12/26 01:39:20;;;;;;;52.90;19.25;;;;;;;;;;5104422;28;20047;-73
2022/12/26 01:41:46;;;;;;;48.83;18.70;;;;;;;;;;5104985;28;20543;-73
2022/12/26 01:44:31;;;;;;;45.20;17.35;;;;;;;;;;5105756;27;20048;-73
2022/12/26 01:46:57;;;;;;;46.25;17.30;;;;;;;;;;5103943;27;20043;-73
2022/12/26 01:49:23;;;;;;;45.47;17.15;;;;;;;;;;5100463;28;20044;-73
2022/12/26 01:51:51;;;;;;;42.85;16.58;;;;;;;;;;5110697;27;20428;-73
2022/12/26 01:54:18;;;;;;;46.33;17.25;;;;;;;;;;5106358;28;20035;-73
2022/12/26 01:56:45;;;;;;;41.47;16.70;;;;;;;;;;5112134;28;20039;-73
2022/12/26 01:59:15;;;;;;;44.33;16.30;;;;;;;;;;5104757;28;20044;-73
2022/12/26 02:01:41;;;;;;;44.45;16.15;;;;;;;;;;5101615;28;20048;-73
2022/12/26 02:06:54;;;;;;;42.75;16.35;;;;;;;;;;5100060;27;20044;-73
2022/12/26 02:09:20;;;;;;;42.88;15.93;;;;;;;;;;5102320;28;20051;-73
2022/12/26 02:11:53;;;;;;;31.60;13.98;;;;;;;;;;5114173;27;20039;-73
2022/12/26 02:14:19;;;;;;;45.20;15.18;;;;;;;;;;5112503;27;20043;-73
2022/12/26 02:16:46;;;;;;;35.55;14.35;;;;;;;;;;5107297;28;20036;-73
2022/12/26 02:19:21;;;;;;;44.00;15.20;;;;;;;;;;5110098;28;20043;-73
2022/12/26 02:22:00;;;;;;;37.63;14.80;;;;;;;;;;5099979;27;20052;-73
2022/12/26 02:24:35;;;;;;;52.03;16.15;;;;;;;;;;5099339;27;20062;-73
2022/12/26 02:27:04;;;;;;;41.97;15.77;;;;;;;;;;5105261;28;20071;-73
2022/12/26 02:29:49;;;;;;;51.70;17.00;;;;;;;;;;5107026;28;20088;-73
2022/12/26 02:32:21;;;;;;;45.33;16.67;;;;;;;;;;5099199;28;20498;-73
2022/12/26 02:35:06;;;;;;;32.13;14.10;;;;;;;;;;5103375;28;20043;-73
2022/12/26 02:37:38;;;;;;;34.67;14.32;;;;;;;;;;5119002;27;20071;-73
2022/12/26 02:40:20;;;;;;;30.15;13.93;;;;;;;;;;5101106;28;20039;-73
2022/12/26 02:42:46;;;;;;;39.88;15.95;;;;;;;;;;5104180;28;20036;-73
2022/12/26 02:48:02;;;;;;;34.33;15.95;;;;;;;;;;5104284;28;20047;-73
2022/12/26 03:13:10;;;;;;;34.00;18.55;;;;;;;;;;5102881;28;20047;-73
2022/12/26 03:18:25;;;;;;;38.58;19.60;;;;;;;;;;5099581;28;20040;-73
2022/12/26 03:20:51;;;;;;;43.38;21.13;;;;;;;;;;5103266;28;20047;-73
2022/12/26 03:23:18;;;;;;;43.47;23.20;;;;;;;;;;5103755;27;20040;-73
2022/12/26 03:28:38;;;;;;;37.88;22.58;;;;;;;;;;5102474;28;20081;-73
2022/12/26 03:31:05;;;;;;;36.75;22.02;;;;;;;;;;5102221;28;20039;-73
2022/12/26 03:36:20;;;;;;;44.88;23.95;;;;;;;;;;5104263;28;20048;-73
2022/12/26 03:38:56;;;;;;;45.22;25.23;;;;;;;;;;5103613;27;20063;-73
2022/12/26 04:19:22;;;;;;;47.15;26.55;;;;;;;;;;5104143;28;20093;-73
2022/12/26 04:46:26;;;;;;;51.42;29.35;;;;;;;;;;5097201;28;20501;-73
2022/12/26 04:51:38;;;;;;;58.67;30.77;;;;;;;;;;5099264;28;20051;-72
2022/12/26 04:54:05;;;;;;;58.63;30.30;;;;;;;;;;5097328;28;20047;-73
2022/12/26 04:56:31;;;;;;;57.28;30.40;;;;;;;;;;5103142;28;20044;-72
2022/12/26 04:58:58;;;;;;;58.13;28.77;;;;;;;;;;5104400;28;20514;-72
2022/12/26 05:09:46;;;;;;;47.58;26.08;;;;;;;;;;5099077;28;19920;-72
2022/12/26 05:12:12;;;;;;;45.42;25.98;;;;;;;;;;5098791;28;20044;-72
2022/12/26 05:14:38;;;;;;;48.58;25.67;;;;;;;;;;5105409;28;20079;-72
2022/12/26 05:31:16;;;;;;;40.85;25.52;;;;;;;;;;5105337;28;20051;-72
2022/12/26 05:36:31;;;;;;;39.88;24.98;;;;;;;;;;5105638;28;20053;-72
2022/12/26 05:38:57;;;;;;;43.42;26.55;;;;;;;;;;5093321;28;20064;-72
2022/12/26 05:41:23;;;;;;;45.55;26.67;;;;;;;;;;5112515;28;20052;-73
2022/12/26 05:43:49;;;;;;;45.17;25.73;;;;;;;;;;5105570;28;20656;-73
2022/12/26 05:46:16;;;;;;;41.92;25.42;;;;;;;;;;5093582;27;20139;-72
2022/12/26 05:48:42;;;;;;;41.33;25.35;;;;;;;;;;5102326;27;20044;-73
2022/12/26 05:51:08;;;;;;;41.78;25.45;;;;;;;;;;5108814;27;20050;-72
2022/12/26 05:53:34;;;;;;;43.83;26.58;;;;;;;;;;5103047;27;20040;-73
2022/12/26 05:56:06;;;;;;;41.72;26.40;;;;;;;;;;5101300;27;20055;-73
2022/12/26 05:58:33;;;;;;;40.03;25.17;;;;;;;;;;5100657;27;20051;-73
2022/12/26 06:01:12;;;;;;;43.00;26.08;;;;;;;;;;5090344;27;20131;-73
2022/12/26 06:03:42;;;;;;;38.75;24.13;;;;;;;;;;5066634;28;20132;-74
2022/12/26 06:06:08;;;;;;;36.35;24.67;;;;;;;;;;5067744;28;20059;-73
2022/12/26 06:08:34;;;;;;;36.38;23.17;;;;;;;;;;5074868;28;20406;-73
2022/12/26 06:11:03;;;;;;;39.40;25.00;;;;;;;;;;5072706;28;20033;-74
2022/12/26 06:13:29;;;;;;;36.00;24.48;;;;;;;;;;5068596;28;20040;-73
2022/12/26 06:15:55;;;;;;;41.10;27.00;;;;;;;;;;5071261;28;20403;-73
2022/12/26 06:18:21;;;;;;;39.67;26.10;;;;;;;;;;5072480;28;20052;-73
2022/12/26 06:20:47;;;;;;;40.55;26.40;;;;;;;;;;5057486;28;20060;-74
2022/12/26 06:23:13;;;;;;;40.30;26.45;;;;;;;;;;5068946;28;20044;-73
2022/12/26 06:25:39;;;;;;;38.92;26.42;;;;;;;;;;5066528;28;20119;-73
2022/12/26 06:28:05;;;;;;;36.10;26.48;;;;;;;;;;5071026;28;20395;-73
2022/12/26 06:30:32;;;;;;;38.08;26.38;;;;;;;;;;5068044;28;20092;-74
2022/12/26 06:32:58;;;;;;;38.88;26.35;;;;;;;;;;5071908;28;20048;-73
2022/12/26 06:35:24;;;;;;;37.90;26.63;;;;;;;;;;5073491;28;20036;-73
2022/12/26 06:37:50;;;;;;;34.55;25.13;;;;;;;;;;5064005;28;20052;-73
2022/12/26 06:40:16;;;;;;;37.95;24.92;;;;;;;;;;5062670;28;20045;-73
2022/12/26 06:42:42;;;;;;;36.03;25.63;;;;;;;;;;5061582;28;20040;-73
2022/12/26 06:45:08;;;;;;;35.03;24.52;;;;;;;;;;5056719;28;20082;-73
2022/12/26 06:47:34;;;;;;;34.42;24.17;;;;;;;;;;5055163;28;20044;-73
2022/12/26 06:50:00;;;;;;;33.42;23.83;;;;;;;;;;5055123;28;20044;-73
2022/12/26 06:52:26;;;;;;;36.05;24.00;;;;;;;;;;5054480;28;20498;-73
2022/12/26 06:54:52;;;;;;;36.20;25.48;;;;;;;;;;5056095;28;20521;-73
2022/12/26 06:57:18;;;;;;;33.30;23.25;;;;;;;;;;5058246;28;20048;-73
2022/12/26 06:59:44;;;;;;;31.92;21.88;;;;;;;;;;5058057;28;20114;-73
2022/12/26 07:02:10;;;;;;;34.47;24.27;;;;;;;;;;5091046;27;20059;-73
2022/12/26 07:04:36;;;;;;;37.92;24.88;;;;;;;;;;5097609;27;20081;-74
2022/12/26 07:07:02;;;;;;;30.42;22.23;;;;;;;;;;5101175;27;20054;-73
2022/12/26 07:09:28;;;;;;;34.85;23.13;;;;;;;;;;5099630;27;20040;-73
2022/12/26 07:11:55;;;;;;;34.65;23.90;;;;;;;;;;5103556;28;20044;-73
2022/12/26 07:14:21;;;;;;;30.70;23.20;;;;;;;;;;5102135;27;20035;-73
2022/12/26 07:16:47;;;;;;;29.95;22.35;;;;;;;;;;5103792;27;20047;-73
2022/12/26 07:19:14;;;;;;;32.78;22.20;;;;;;;;;;5100992;27;20512;-73
2022/12/26 07:21:40;;;;;;;32.50;23.23;;;;;;;;;;5104992;27;20039;-73
2022/12/26 07:24:07;;;;;;;33.42;23.02;;;;;;;;;;5110015;27;20541;-74
2022/12/26 07:26:33;;;;;;;31.02;22.30;;;;;;;;;;5119524;27;20447;-73
2022/12/26 07:29:00;;;;;;;32.40;22.83;;;;;;;;;;5119123;27;20498;-73
2022/12/26 07:31:26;;;;;;;33.40;23.92;;;;;;;;;;5112902;27;20043;-73
2022/12/26 07:33:54;;;;;;;34.05;24.27;;;;;;;;;;5119884;27;20036;-73
2022/12/26 07:36:20;;;;;;;33.75;24.27;;;;;;;;;;5107852;27;20500;-73
2022/12/26 07:38:46;;;;;;;35.30;24.50;;;;;;;;;;5115646;27;20040;-74
2022/12/26 07:43:58;;;;;;;35.33;24.20;;;;;;;;;;5099920;27;20039;-73
2022/12/26 07:46:24;;;;;;;36.67;25.80;;;;;;;;;;5101902;27;20062;-73
2022/12/26 07:48:50;;;;;;;34.92;24.80;;;;;;;;;;5099380;27;20052;-73
2022/12/26 07:51:16;;;;;;;38.22;25.38;;;;;;;;;;5093993;28;20043;-73
2022/12/26 07:53:42;;;;;;;39.45;25.52;;;;;;;;;;5106772;27;20048;-73
2022/12/26 07:56:08;;;;;;;35.03;24.85;;;;;;;;;;5099418;27;20036;-73
2022/12/26 07:58:34;;;;;;;37.95;25.17;;;;;;;;;;5099533;27;20040;-73
2022/12/26 08:01:01;;;;;;;38.88;26.42;;;;;;;;;;5098383;27;20047;-73
2022/12/26 08:03:27;;;;;;;40.92;25.52;;;;;;;;;;5101415;27;20126;-74
2022/12/26 08:05:53;;;;;;;40.53;27.38;;;;;;;;;;5097086;28;20114;-72
2022/12/26 08:08:19;;;;;;;37.75;25.90;;;;;;;;;;5097140;28;20384;-72
2022/12/26 08:10:46;;;;;;;35.22;25.80;;;;;;;;;;5101879;28;20043;-74
2022/12/26 08:13:12;;;;;;;38.42;26.40;;;;;;;;;;5093610;28;20134;-71
2022/12/26 08:15:38;;;;;;;37.80;25.70;;;;;;;;;;5093578;27;20040;-72
2022/12/26 08:18:05;;;;;;;37.55;24.55;;;;;;;;;;5093453;27;22629;-73
2022/12/26 08:20:31;;;;;;;38.38;26.83;;;;;;;;;;5096582;28;21189;-73
2022/12/26 08:22:57;;;;;;;37.08;26.13;;;;;;;;;;5096121;28;20048;-73
2022/12/26 08:25:23;;;;;;;37.25;24.75;;;;;;;;;;5101260;28;20055;-73
2022/12/26 08:27:49;;;;;;;35.22;24.98;;;;;;;;;;5101550;28;20051;-73
2022/12/26 08:30:15;;;;;;;34.25;23.67;;;;;;;;;;5102263;28;20046;-73
2022/12/26 08:32:42;;;;;;;41.17;24.77;;;;;;;;;;5104324;28;20048;-73
2022/12/26 08:35:08;;;;;;;33.70;24.33;;;;;;;;;;5102641;28;20067;-73
2022/12/26 08:37:34;;;;;;;34.90;24.58;;;;;;;;;;5099155;28;20048;-72
2022/12/26 08:40:00;;;;;;;35.50;24.48;;;;;;;;;;5104054;28;20047;-73
2022/12/26 08:42:26;;;;;;;33.20;24.25;;;;;;;;;;5105425;28;20054;-73
2022/12/26 08:44:52;;;;;;;34.25;23.50;;;;;;;;;;5110245;28;20047;-73
2022/12/26 08:47:18;;;;;;;30.00;23.92;;;;;;;;;;5107078;28;20048;-73
2022/12/26 08:49:44;;;;;;;29.35;21.70;;;;;;;;;;5104021;28;20481;-73
2022/12/26 08:52:10;;;;;;;29.80;22.23;;;;;;;;;;5106129;28;20049;-73
2022/12/26 08:54:39;;;;;;;29.95;21.60;;;;;;;;;;5114061;27;20047;-73
2022/12/26 08:57:05;;;;;;;27.63;21.30;;;;;;;;;;5101056;28;20044;-73
2022/12/26 08:59:31;;;;;;;30.35;20.80;;;;;;;;;;5101737;28;20092;-73
2022/12/26 09:01:57;;;;;;;24.13;19.00;;;;;;;;;;5099366;28;20056;-73
2022/12/26 09:04:23;;;;;;;26.40;18.85;;;;;;;;;;5091416;28;20036;-73
2022/12/26 09:06:49;;;;;;;25.02;17.50;;;;;;;;;;5098814;28;20048;-73
2022/12/26 09:09:15;;;;;;;21.73;15.65;;;;;;;;;;5098587;28;20044;-73
2022/12/26 09:11:41;;;;;;;19.85;14.13;;;;;;;;;;5098098;28;20051;-72
2022/12/26 09:14:08;;;;;;;20.40;14.05;;;;;;;;;;5100055;27;20047;-73
2022/12/26 09:16:35;;;;;;;19.40;13.85;;;;;;;;;;5101467;28;20126;-72
2022/12/26 09:19:03;;;;;;;19.23;12.27;;;;;;;;;;5109911;27;20036;-72
2022/12/26 09:21:29;;;;;;;17.80;11.48;;;;;;;;;;5099988;27;20059;-72
2022/12/26 09:23:59;;;;;;;19.92;11.85;;;;;;;;;;5104517;28;20039;-72
2022/12/26 09:26:25;;;;;;;17.35;10.90;;;;;;;;;;5103622;27;20048;-72
2022/12/26 09:28:52;;;;;;;15.80;10.70;;;;;;;;;;5099518;28;20047;-72
2022/12/26 09:31:19;;;;;;;18.92;10.80;;;;;;;;;;5103734;27;20059;-72
2022/12/26 09:33:46;;;;;;;16.63;9.90;;;;;;;;;;5109189;28;20058;-72
2022/12/26 09:36:16;;;;;;;15.88;10.00;;;;;;;;;;5098097;27;20063;-72
2022/12/26 09:38:43;;;;;;;18.60;9.52;;;;;;;;;;5104291;28;20035;-72
2022/12/26 09:41:09;;;;;;;17.20;9.52;;;;;;;;;;5101678;28;20052;-72
2022/12/26 09:43:53;;;;;;;17.83;9.00;;;;;;;;;;5106693;28;20042;-72
2022/12/26 09:46:33;;;;;;;16.40;9.43;;;;;;;;;;5109642;28;20096;-72
2022/12/26 09:49:03;;;;;;;15.80;8.57;;;;;;;;;;5108724;28;20067;-72
2022/12/26 09:51:30;;;;;;;16.88;9.05;;;;;;;;;;5118332;27;20051;-72
2022/12/26 09:53:57;;;;;;;21.50;8.93;;;;;;;;;;5111405;27;20052;-72
2022/12/26 09:56:23;;;;;;;14.82;8.43;;;;;;;;;;5115330;27;20039;-72
2022/12/26 09:58:52;;;;;;;14.02;7.45;;;;;;;;;;5113191;27;20039;-72
2022/12/26 10:01:22;;;;;;;14.30;7.75;;;;;;;;;;5109447;27;20063;-72
2022/12/26 10:03:53;;;;;;;13.98;7.43;;;;;;;;;;5099807;27;20048;-72
2022/12/26 10:06:21;;;;;;;10.30;6.50;;;;;;;;;;5105429;27;20606;-72
2022/12/26 10:08:59;;;;;;;10.40;6.18;;;;;;;;;;5115091;27;20054;-72
2022/12/26 10:11:25;;;;;;;11.35;5.15;;;;;;;;;;5101032;27;20043;-72
2022/12/26 10:13:56;;;;;;;13.52;5.68;;;;;;;;;;5113455;27;20050;-72
2022/12/26 10:16:26;;;;;;;10.68;5.63;;;;;;;;;;5102637;28;20047;-72
2022/12/26 10:19:17;;;;;;;10.45;3.97;;;;;;;;;;5099709;28;20054;-72
2022/12/26 10:21:55;;;;;;;11.40;3.83;;;;;;;;;;5107088;27;20055;-72
2022/12/26 10:24:23;;;;;;;8.52;3.40;;;;;;;;;;5103493;27;20040;-72
2022/12/26 10:26:55;;;;;;;8.43;3.70;;;;;;;;;;5103180;28;20063;-72
2022/12/26 10:29:36;;;;;;;9.40;3.42;;;;;;;;;;5111233;28;20056;-72
2022/12/26 10:32:02;;;;;;;;;;;;;;;;;;5109791;27;20485;-72
2022/12/26 10:34:31;;;;;;;11.90;2.35;;;;;;;;;;5112910;28;19967;-72
2022/12/26 10:37:15;;;;;;;15.40;2.55;;;;;;;;;;5114158;28;20036;-72
2022/12/26 10:39:44;;;;;;;14.27;3.03;;;;;;;;;;5094226;28;20529;-72
2022/12/26 10:42:18;;;;;;;10.68;2.80;;;;;;;;;;5109812;27;20127;-72
2022/12/26 10:44:44;;;;;;;14.10;2.55;;;;;;;;;;5092870;28;20405;-72
2022/12/26 10:47:17;;;;;;;17.52;3.42;;;;;;;;;;5111771;27;20059;-72
2022/12/26 10:49:45;;;;;;;11.32;2.08;;;;;;;;;;5112698;27;20044;-72
2022/12/26 10:52:12;;;;;;;10.68;2.90;;;;;;;;;;5113907;28;20078;-72
2022/12/26 10:54:38;;;;;;;17.60;2.90;;;;;;;;;;5114038;28;20052;-72
2022/12/26 10:57:07;;;;;;;13.50;3.35;;;;;;;;;;5113693;28;20116;-72
2022/12/26 10:59:39;;;;;;;16.02;4.35;;;;;;;;;;5113012;28;20047;-72
2022/12/26 11:02:32;;;;;;;11.50;3.05;;;;;;;;;;5112927;27;20050;-72
2022/12/26 11:04:59;;;;;;;11.38;2.15;;;;;;;;;;5111203;28;20081;-72
2022/12/26 11:07:27;;;;;;;14.10;2.50;;;;;;;;;;5111937;28;20059;-72
2022/12/26 11:09:59;;;;;;;12.10;2.00;;;;;;;;;;5110988;28;20554;-72
2022/12/26 11:12:29;;;;;;;16.63;2.70;;;;;;;;;;5104148;28;20050;-72
2022/12/26 11:15:00;;;;;;;12.68;2.13;;;;;;;;;;5108819;27;20354;-72
2022/12/26 11:17:28;;;;;;;11.52;1.98;;;;;;;;;;5116549;27;20044;-72
2022/12/26 11:20:13;;;;;;;12.20;1.80;;;;;;;;;;5097880;28;20176;-72
2022/12/26 11:22:39;;;;;;;14.77;2.13;;;;;;;;;;5112985;28;20443;-72
2022/12/26 11:25:07;;;;;;;12.73;1.95;;;;;;;;;;5108979;27;20405;-72
2022/12/26 11:27:34;;;;;;;11.32;1.58;;;;;;;;;;5102729;28;20394;-72
2022/12/26 11:30:19;;;;;;;10.98;1.83;;;;;;;;;;5102307;28;20493;-72
2022/12/26 11:32:46;;;;;;;9.35;1.40;;;;;;;;;;5098737;28;20111;-72
2022/12/26 11:35:16;;;;;;;8.55;1.55;;;;;;;;;;5104871;27;20048;-72
2022/12/26 11:37:44;;;;;;;11.93;1.50;;;;;;;;;;5096558;28;20052;-72
2022/12/26 11:40:18;;;;;;;10.75;1.60;;;;;;;;;;5105851;27;20040;-72
2022/12/26 11:42:48;;;;;;;10.32;1.70;;;;;;;;;;5107758;28;20460;-72
2022/12/26 11:45:20;;;;;;;11.15;1.50;;;;;;;;;;5102651;28;20053;-72
2022/12/26 11:47:46;;;;;;;11.02;1.20;;;;;;;;;;5104812;28;20493;-73
2022/12/26 11:50:19;;;;;;;7.93;1.63;;;;;;;;;;5106763;28;20043;-72
2022/12/26 11:52:50;;;;;;;10.93;1.50;;;;;;;;;;5094039;28;20048;-72
2022/12/26 11:55:23;;;;;;;9.93;1.40;;;;;;;;;;5098631;28;20048;-72
2022/12/26 11:58:07;;;;;;;9.48;1.30;;;;;;;;;;5116267;27;20055;-72
2022/12/26 12:00:34;;;;;;;9.20;1.52;;;;;;;;;;5103178;28;20092;-72
2022/12/26 12:03:01;;;;;;;8.98;1.60;;;;;;;;;;5103545;28;20052;-72
2022/12/26 12:05:33;;;;;;;9.10;1.30;;;;;;;;;;5108661;28;20129;-73
2022/12/26 12:08:21;;;;;;;9.57;1.50;;;;;;;;;;5105870;28;20047;-72
2022/12/26 12:11:06;;;;;;;12.32;1.30;;;;;;;;;;5112890;28;20046;-73
2022/12/26 12:13:42;;;;;;;13.65;1.65;;;;;;;;;;5113089;28;20044;-73
2022/12/26 12:16:14;;;;;;;12.70;1.60;;;;;;;;;;5108268;28;20047;-73
2022/12/26 12:18:49;;;;;;;13.30;1.92;;;;;;;;;;5112763;28;20050;-73
2022/12/26 12:21:27;;;;;;;12.88;1.65;;;;;;;;;;5105788;28;20043;-73
2022/12/26 12:23:53;;;;;;;11.90;2.17;;;;;;;;;;5097708;28;20367;-72
2022/12/26 12:26:38;;;;;;;9.27;1.60;;;;;;;;;;5110276;28;20097;-73
2022/12/26 12:29:19;;;;;;;12.35;1.65;;;;;;;;;;5102074;28;20043;-73
2022/12/26 12:31:48;;;;;;;16.27;2.03;;;;;;;;;;5103637;28;20051;-73
2022/12/26 12:34:47;;;;;;;10.30;1.50;;;;;;;;;;5099494;28;20052;-73
2022/12/26 12:37:28;;;;;;;18.42;2.20;;;;;;;;;;5065001;28;20057;-73
2022/12/26 12:39:59;;;;;;;20.02;2.28;;;;;;;;;;5059960;28;20145;-72
2022/12/26 12:42:25;;;;;;;17.48;2.45;;;;;;;;;;5064317;28;20434;-72
2022/12/26 12:44:54;;;;;;;14.55;2.45;;;;;;;;;;5067682;28;20219;-73
2022/12/26 12:47:34;;;;;;;19.90;2.70;;;;;;;;;;5066750;28;20071;-73
2022/12/26 12:50:19;;;;;;;16.83;2.50;;;;;;;;;;5068530;28;20052;-73
2022/12/26 12:52:51;;;;;;;16.30;2.47;;;;;;;;;;5068783;28;20055;-72
2022/12/26 12:55:20;;;;;;;17.63;3.13;;;;;;;;;;5070440;28;20063;-72
2022/12/26 12:57:51;;;;;;;16.52;2.30;;;;;;;;;;5070683;28;20487;-72
2022/12/26 13:00:18;;;;;;;;;;;;;;;;;;5054297;28;20053;-73
2022/12/26 13:02:51;;;;;;;15.70;2.55;;;;;;;;;;5071020;28;20004;-73
2022/12/26 13:05:20;;;;;;;18.25;2.72;;;;;;;;;;5076069;28;20056;-73
2022/12/26 13:07:49;;;;;;;15.35;2.22;;;;;;;;;;5064431;28;22149;-73
2022/12/26 13:10:35;;;;;;;15.48;2.33;;;;;;;;;;5066787;28;20045;-73
2022/12/26 13:13:09;;;;;;;21.48;3.03;;;;;;;;;;5082949;28;20051;-73
2022/12/26 13:15:38;;;;;;;16.98;2.20;;;;;;;;;;5117293;27;20046;-72
2022/12/26 13:18:33;;;;;;;16.85;2.25;;;;;;;;;;5122242;27;20116;-73
2022/12/26 13:21:03;;;;;;;16.83;2.38;;;;;;;;;;5092238;28;20052;-73
2022/12/26 13:26:22;;;;;;;16.58;2.58;;;;;;;;;;5113344;27;20055;-74
2022/12/26 13:28:55;;;;;;;12.38;2.78;;;;;;;;;;5113668;28;20055;-73
2022/12/26 13:31:21;;;;;;;13.73;2.28;;;;;;;;;;5112683;27;20480;-72
2022/12/26 13:33:47;;;;;;;14.07;2.30;;;;;;;;;;5108944;28;20051;-71
2022/12/26 13:36:33;;;;;;;15.43;2.50;;;;;;;;;;5113638;28;20547;-71
2022/12/26 13:39:00;;;;;;;16.60;2.65;;;;;;;;;;5123772;27;20477;-72
2022/12/26 13:44:32;;;;;;;13.60;1.90;;;;;;;;;;5126661;27;20096;-72
2022/12/26 13:46:58;;;;;;;19.70;2.47;;;;;;;;;;5109838;28;20040;-72
2022/12/26 13:49:35;;;;;;;17.60;2.63;;;;;;;;;;5112409;28;20478;-72
2022/12/26 13:52:10;;;;;;;16.35;2.22;;;;;;;;;;5112329;27;20059;-72
2022/12/26 13:54:57;;;;;;;16.45;2.05;;;;;;;;;;5097130;28;20044;-72
2022/12/26 13:57:23;;;;;;;18.23;2.72;;;;;;;;;;5104253;28;20058;-72
2022/12/26 14:00:00;;;;;;;14.57;2.67;;;;;;;;;;5093939;28;20048;-72
2022/12/26 14:02:45;;;;;;;15.05;2.15;;;;;;;;;;5112979;27;20059;-72
2022/12/26 14:05:17;;;;;;;11.95;2.00;;;;;;;;;;5098576;28;20044;-72
2022/12/26 14:07:53;;;;;;;18.55;2.53;;;;;;;;;;5112091;27;20058;-72
2022/12/26 14:10:39;;;;;;;16.77;2.83;;;;;;;;;;5114438;28;20420;-72
2022/12/26 14:13:05;;;;;;;13.10;2.10;;;;;;;;;;5114389;28;20465;-72
2022/12/26 14:15:31;;;;;;;15.05;2.55;;;;;;;;;;5114550;27;20050;-72
2022/12/26 14:17:57;;;;;;;20.58;2.45;;;;;;;;;;5114036;27;20057;-72
2022/12/26 14:20:35;;;;;;;17.63;2.47;;;;;;;;;;5129781;27;20059;-72
2022/12/26 14:23:13;;;;;;;16.50;2.80;;;;;;;;;;5114970;28;20047;-72
2022/12/26 14:25:50;;;;;;;18.63;2.78;;;;;;;;;;5114675;28;20361;-72
2022/12/26 14:28:16;;;;;;;14.73;2.15;;;;;;;;;;5094259;28;20151;-72
2022/12/26 14:31:00;;;;;;;17.70;2.60;;;;;;;;;;5113356;28;20047;-72
2022/12/26 14:33:43;;;;;;;16.73;2.70;;;;;;;;;;5114089;28;20347;-72
2022/12/26 14:36:16;;;;;;;13.18;2.28;;;;;;;;;;5100120;28;20048;-72
2022/12/26 14:38:46;;;;;;;15.32;2.35;;;;;;;;;;5093860;28;20040;-72
2022/12/26 14:44:19;;;;;;;13.95;2.20;;;;;;;;;;5108885;28;20421;-72
2022/12/26 14:46:48;;;;;;;16.05;2.22;;;;;;;;;;5106008;27;20060;-72
2022/12/26 14:49:29;;;;;;;14.93;2.40;;;;;;;;;;5114307;28;20048;-72
2022/12/26 14:52:15;;;;;;;19.48;2.55;;;;;;;;;;5111891;28;20063;-72
2022/12/26 14:54:45;;;;;;;13.70;2.22;;;;;;;;;;5112011;28;20418;-72
2022/12/26 14:57:30;;;;;;;21.52;2.63;;;;;;;;;;5114098;28;20050;-72
2022/12/26 15:00:10;;;;;;;15.40;2.40;;;;;;;;;;5113878;28;20500;-72
2022/12/26 15:02:37;;;;;;;14.45;2.13;;;;;;;;;;5112113;28;20048;-72
2022/12/26 15:05:03;;;;;;;15.77;3.30;;;;;;;;;;5114154;28;20052;-72
2022/12/26 15:07:36;;;;;;;20.02;2.95;;;;;;;;;;5115413;27;20050;-72
2022/12/26 15:10:11;;;;;;;15.13;2.67;;;;;;;;;;5106424;27;20036;-72
2022/12/26 15:12:52;;;;;;;14.68;2.42;;;;;;;;;;5105288;28;20096;-72
2022/12/26 15:15:27;;;;;;;21.85;3.15;;;;;;;;;;5112752;28;20378;-72
2022/12/26 15:18:12;;;;;;;18.38;2.90;;;;;;;;;;5113433;28;20055;-72
2022/12/26 15:20:56;;;;;;;17.60;3.65;;;;;;;;;;5114994;27;20092;-72
2022/12/26 15:23:41;;;;;;;13.68;4.13;;;;;;;;;;5111484;28;20055;-72
2022/12/26 15:26:25;;;;;;;15.98;2.75;;;;;;;;;;5113817;28;20131;-72
2022/12/26 15:29:09;;;;;;;16.70;4.05;;;;;;;;;;5112149;28;20047;-72
2022/12/26 15:31:57;;;;;;;16.48;4.03;;;;;;;;;;5112605;28;20565;-72
2022/12/26 15:34:35;;;;;;;15.27;2.85;;;;;;;;;;5113401;28;20043;-72
2022/12/26 15:37:04;;;;;;;16.90;3.65;;;;;;;;;;5110261;28;20144;-72
2022/12/26 15:39:30;;;;;;;15.68;5.22;;;;;;;;;;5112415;28;20043;-72
2022/12/26 15:42:05;;;;;;;21.15;6.60;;;;;;;;;;5113201;28;20054;-72
2022/12/26 15:44:31;;;;;;;19.35;5.75;;;;;;;;;;5094471;27;20550;-72
2022/12/26 15:47:17;;;;;;;17.35;4.72;;;;;;;;;;5104059;27;20757;-72
2022/12/26 15:49:47;;;;;;;16.08;4.55;;;;;;;;;;5102402;28;20043;-72
2022/12/26 15:52:22;;;;;;;16.40;3.70;;;;;;;;;;5107323;27;20089;-72
2022/12/26 15:54:48;;;;;;;17.58;5.05;;;;;;;;;;5107564;27;20044;-72
2022/12/26 15:57:23;;;;;;;16.83;5.03;;;;;;;;;;5112528;28;20048;-72
2022/12/26 16:00:09;;;;;;;14.15;3.72;;;;;;;;;;5113065;28;20046;-72
2022/12/26 16:02:43;;;;;;;15.55;3.30;;;;;;;;;;5103482;28;20172;-72
2022/12/26 16:05:12;;;;;;;16.67;4.22;;;;;;;;;;5106837;28;20107;-72
2022/12/26 16:07:43;;;;;;;17.73;4.07;;;;;;;;;;5109711;27;20397;-72
2022/12/26 16:10:22;;;;;;;19.08;3.60;;;;;;;;;;5113104;27;20043;-72
2022/12/26 16:12:57;;;;;;;15.63;3.00;;;;;;;;;;5113805;27;20036;-72
2022/12/26 16:15:24;;;;;;;16.67;3.50;;;;;;;;;;5113794;28;20093;-72
2022/12/26 16:17:50;;;;;;;14.60;3.05;;;;;;;;;;5113635;28;20047;-72
2022/12/26 16:20:16;;;;;;;17.25;3.20;;;;;;;;;;5109037;28;20039;-72
2022/12/26 16:22:42;;;;;;;16.90;3.08;;;;;;;;;;5117870;27;20400;-72
2022/12/26 16:25:10;;;;;;;12.73;3.45;;;;;;;;;;5115092;27;20036;-72
2022/12/26 16:27:37;;;;;;;18.92;3.58;;;;;;;;;;5093024;28;20485;-72
2022/12/26 16:30:13;;;;;;;15.38;3.58;;;;;;;;;;5096970;28;20130;-72
2022/12/26 16:32:40;;;;;;;14.82;3.40;;;;;;;;;;5112184;28;20054;-72
2022/12/26 16:35:14;;;;;;;20.38;3.63;;;;;;;;;;5107349;28;20405;-72
2022/12/26 16:37:41;;;;;;;17.35;3.40;;;;;;;;;;5113614;28;20051;-72
2022/12/26 16:40:22;;;;;;;17.67;3.88;;;;;;;;;;5113426;28;20043;-72
2022/12/26 16:42:59;;;;;;;14.90;3.42;;;;;;;;;;5109958;28;20065;-72
2022/12/26 16:45:26;;;;;;;18.55;4.07;;;;;;;;;;5098319;28;20126;-72
2022/12/26 16:47:53;;;;;;;15.48;3.95;;;;;;;;;;5113259;27;20070;-72
2022/12/26 16:50:21;;;;;;;19.55;4.03;;;;;;;;;;5113195;28;20061;-72
2022/12/26 16:52:47;;;;;;;17.30;4.10;;;;;;;;;;5111612;28;20051;-72
2022/12/26 16:55:22;;;;;;;17.13;4.40;;;;;;;;;;5114441;28;20040;-72
2022/12/26 16:57:55;;;;;;;19.63;5.35;;;;;;;;;;5120308;28;20408;-72
2022/12/26 17:00:21;;;;;;;17.52;3.22;;;;;;;;;;5117868;27;20447;-72